sensor_id;sensor_type;location;lat;lon;timestamp;temperature;humidity
4509;DHT22;2267;48.816;9.230;2022-12-24T00:01:02;13.00;99.90
4509;DHT22;2267;48.816;9.230;2022-12-24T00:03:29;13.00;99.90
4509;DHT22;2267;48.816;9.230;2022-12-24T00:05:56;13.00;99.90
4509;DHT22;2267;48.816;9.230;2022-12-24T00:08:23;13.00;99.90
4509;DHT22;2267;48.816;9.230;2022-12-24T00:10:51;13.00;99.90
4509;DHT22;2267;48.816;9.230;2022-12-24T00:13:19;12.90;99.90
4509;DHT22;2267;48.816;9.230;2022-12-24T00:15:46;12.90;99.90
4509;DHT22;2267;48.816;9.230;2022-12-24T00:18:13;12.90;99.90
4509;DHT22;2267;48.816;9.230;2022-12-24T00:20:40;12.90;99.90
4509;DHT22;2267;48.816;9.230;2022-12-24T00:23:07;12.90;99.90
4509;DHT22;2267;48.816;9.230;2022-12-24T00:25:34;12.90;99.90
4509;DHT22;2267;48.816;9.230;2022-12-24T00:28:01;12.90;99.90
4509;DHT22;2267;48.816;9.230;2022-12-24T00:30:28;12.90;99.90
4509;DHT22;2267;48.816;9.230;2022-12-24T00:32:55;12.90;99.90
4509;DHT22;2267;48.816;9.230;2022-12-24T00:35:22;12.90;99.90
4509;DHT22;2267;48.816;9.230;2022-12-24T00:37:49;12.90;99.90
4509;DHT22;2267;48.816;9.230;2022-12-24T00:40:17;12.90;99.90
4509;DHT22;2267;48.816;9.230;2022-12-24T00:42:43;12.90;99.90
4509;DHT22;2267;48.816;9.230;2022-12-24T00:45:11;12.80;99.90
4509;DHT22;2267;48.816;9.230;2022-12-24T00:47:38;12.80;99.90
4509;DHT22;2267;48.816;9.230;2022-12-24T00:50:05;12.80;99.90
4509;DHT22;2267;48.816;9.230;2022-12-24T00:52:33;12.80;99.90
4509;DHT22;2267;48.816;9.230;2022-12-24T00:55:00;12.80;99.90
4509;DHT22;2267;48.816;9.230;2022-12-24T00:57:26;12.70;99.90
4509;DHT22;2267;48.816;9.230;2022-12-24T00:59:53;12.70;99.90
4509;DHT22;2267;48.816;9.230;2022-12-24T01:02:20;12.70;99.90
4509;DHT22;2267;48.816;9.230;2022-12-24T01:04:47;12.70;99.90
4509;DHT22;2267;48.816;9.230;2022-12-24T01:07:33;12.80;99.90
4509;DHT22;2267;48.816;9.230;2022-12-24T01:10:00;12.70;99.90
4509;DHT22;2267;48.816;9.230;2022-12-24T01:12:27;12.80;99.90
4509;DHT22;2267;48.816;9.230;2022-12-24T01:14:53;12.80;99.90
4509;DHT22;2267;48.816;9.230;2022-12-24T01:17:20;12.80;99.90
4509;DHT22;2267;48.816;9.230;2022-12-24T01:19:47;12.80;99.90
4509;DHT22;2267;48.816;9.230;2022-12-24T01:22:14;12.70;99.90
4509;DHT22;2267;48.816;9.230;2022-12-24T01:24:42;12.80;99.90
4509;DHT22;2267;48.816;9.230;2022-12-24T01:27:09;12.80;99.90
4509;DHT22;2267;48.816;9.230;2022-12-24T01:29:36;12.80;99.90
4509;DHT22;2267;48.816;9.230;2022-12-24T01:32:03;12.80;99.90
4509;DHT22;2267;48.816;9.230;2022-12-24T01:34:30;12.80;99.90
4509;DHT22;2267;48.816;9.230;2022-12-24T01:36:57;12.80;99.90
4509;DHT22;2267;48.816;9.230;2022-12-24T01:39:24;12.80;99.90
4509;DHT22;2267;48.816;9.230;2022-12-24T01:41:51;12.80;99.90
4509;DHT22;2267;48.816;9.230;2022-12-24T01:44:41;12.70;99.90
4509;DHT22;2267;48.816;9.230;2022-12-24T01:49:48;12.60;99.90
4509;DHT22;2267;48.816;9.230;2022-12-24T01:52:21;12.60;99.90
4509;DHT22;2267;48.816;9.230;2022-12-24T01:54:52;12.60;99.90
4509;DHT22;2267;48.816;9.230;2022-12-24T01:57:25;12.60;99.90
4509;DHT22;2267;48.816;9.230;2022-12-24T01:59:56;12.50;99.90
4509;DHT22;2267;48.816;9.230;2022-12-24T02:02:25;12.50;99.90
4509;DHT22;2267;48.816;9.230;2022-12-24T02:05:02;12.50;99.90
4509;DHT22;2267;48.816;9.230;2022-12-24T02:07:30;12.50;99.90
4509;DHT22;2267;48.816;9.230;2022-12-24T02:09:59;12.50;99.90
4509;DHT22;2267;48.816;9.230;2022-12-24T02:12:29;12.50;99.90
4509;DHT22;2267;48.816;9.230;2022-12-24T02:14:58;12.40;99.90
4509;DHT22;2267;48.816;9.230;2022-12-24T02:17:55;12.40;99.90
4509;DHT22;2267;48.816;9.230;2022-12-24T02:32:31;12.40;99.90
4509;DHT22;2267;48.816;9.230;2022-12-24T02:34:46;12.40;99.90
4509;DHT22;2267;48.816;9.230;2022-12-24T02:37:24;12.40;99.90
4509;DHT22;2267;48.816;9.230;2022-12-24T02:39:56;12.40;99.90
4509;DHT22;2267;48.816;9.230;2022-12-24T02:42:31;12.40;99.90
4509;DHT22;2267;48.816;9.230;2022-12-24T02:45:13;12.40;99.90
4509;DHT22;2267;48.816;9.230;2022-12-24T02:47:41;12.40;99.90
4509;DHT22;2267;48.816;9.230;2022-12-24T02:50:13;12.40;99.90
4509;DHT22;2267;48.816;9.230;2022-12-24T02:52:44;12.40;99.90
4509;DHT22;2267;48.816;9.230;2022-12-24T02:55:17;12.60;99.90
4509;DHT22;2267;48.816;9.230;2022-12-24T03:03:42;12.30;99.90
4509;DHT22;2267;48.816;9.230;2022-12-24T03:09:28;12.20;99.90
4509;DHT22;2267;48.816;9.230;2022-12-24T03:12:09;12.20;99.90
4509;DHT22;2267;48.816;9.230;2022-12-24T03:14:39;12.20;99.90
4509;DHT22;2267;48.816;9.230;2022-12-24T03:17:07;12.10;99.90
4509;DHT22;2267;48.816;9.230;2022-12-24T03:19:34;12.10;99.90
4509;DHT22;2267;48.816;9.230;2022-12-24T03:22:03;12.10;99.90
4509;DHT22;2267;48.816;9.230;2022-12-24T03:24:32;12.10;99.90
4509;DHT22;2267;48.816;9.230;2022-12-24T03:26:59;12.10;99.90
4509;DHT22;2267;48.816;9.230;2022-12-24T03:29:27;12.10;99.90
4509;DHT22;2267;48.816;9.230;2022-12-24T03:31:59;12.10;99.90
4509;DHT22;2267;48.816;9.230;2022-12-24T03:34:27;12.00;99.90
4509;DHT22;2267;48.816;9.230;2022-12-24T03:36:54;12.00;99.90
4509;DHT22;2267;48.816;9.230;2022-12-24T03:39:21;12.00;99.90
4509;DHT22;2267;48.816;9.230;2022-12-24T03:41:48;12.00;99.90
4509;DHT22;2267;48.816;9.230;2022-12-24T03:44:15;12.00;99.90
4509;DHT22;2267;48.816;9.230;2022-12-24T03:46:41;12.00;99.90
4509;DHT22;2267;48.816;9.230;2022-12-24T03:49:08;12.00;99.90
4509;DHT22;2267;48.816;9.230;2022-12-24T03:51:35;12.40;99.90
4509;DHT22;2267;48.816;9.230;2022-12-24T03:54:01;12.00;99.90
4509;DHT22;2267;48.816;9.230;2022-12-24T03:56:28;12.00;99.90
4509;DHT22;2267;48.816;9.230;2022-12-24T03:58:55;12.00;99.90
4509;DHT22;2267;48.816;9.230;2022-12-24T04:01:22;12.00;99.90
4509;DHT22;2267;48.816;9.230;2022-12-24T04:03:49;12.00;99.90
4509;DHT22;2267;48.816;9.230;2022-12-24T04:06:16;12.00;99.90
4509;DHT22;2267;48.816;9.230;2022-12-24T04:08:43;12.00;99.90
4509;DHT22;2267;48.816;9.230;2022-12-24T04:11:12;12.00;99.90
4509;DHT22;2267;48.816;9.230;2022-12-24T04:13:39;12.00;99.90
4509;DHT22;2267;48.816;9.230;2022-12-24T04:16:08;12.00;99.90
4509;DHT22;2267;48.816;9.230;2022-12-24T04:18:35;12.00;99.90
4509;DHT22;2267;48.816;9.230;2022-12-24T04:21:03;12.00;99.90
4509;DHT22;2267;48.816;9.230;2022-12-24T04:23:32;12.00;99.90
4509;DHT22;2267;48.816;9.230;2022-12-24T04:26:03;12.00;99.90
4509;DHT22;2267;48.816;9.230;2022-12-24T04:28:32;12.00;99.90
4509;DHT22;2267;48.816;9.230;2022-12-24T04:31:03;11.90;99.90
4509;DHT22;2267;48.816;9.230;2022-12-24T04:33:30;11.90;99.90
4509;DHT22;2267;48.816;9.230;2022-12-24T04:35:58;11.90;99.90
4509;DHT22;2267;48.816;9.230;2022-12-24T04:38:26;11.90;99.90
4509;DHT22;2267;48.816;9.230;2022-12-24T04:41:00;11.90;99.90
4509;DHT22;2267;48.816;9.230;2022-12-24T04:43:28;11.90;99.90
4509;DHT22;2267;48.816;9.230;2022-12-24T04:45:55;11.90;99.90
4509;DHT22;2267;48.816;9.230;2022-12-24T04:48:22;11.90;99.90
4509;DHT22;2267;48.816;9.230;2022-12-24T04:50:49;11.90;99.90
4509;DHT22;2267;48.816;9.230;2022-12-24T04:53:16;11.80;99.90
4509;DHT22;2267;48.816;9.230;2022-12-24T04:55:44;11.90;99.90
4509;DHT22;2267;48.816;9.230;2022-12-24T04:58:12;11.90;99.90
4509;DHT22;2267;48.816;9.230;2022-12-24T05:00:39;11.90;99.90
4509;DHT22;2267;48.816;9.230;2022-12-24T05:03:06;11.80;99.90
4509;DHT22;2267;48.816;9.230;2022-12-24T05:05:33;11.80;99.90
4509;DHT22;2267;48.816;9.230;2022-12-24T05:08:00;11.80;99.90
4509;DHT22;2267;48.816;9.230;2022-12-24T05:10:26;11.80;99.90
4509;DHT22;2267;48.816;9.230;2022-12-24T05:12:53;11.80;99.90
4509;DHT22;2267;48.816;9.230;2022-12-24T05:15:20;11.80;99.90
4509;DHT22;2267;48.816;9.230;2022-12-24T05:17:46;11.80;99.90
4509;DHT22;2267;48.816;9.230;2022-12-24T05:20:13;11.70;99.90
4509;DHT22;2267;48.816;9.230;2022-12-24T05:22:40;11.70;99.90
4509;DHT22;2267;48.816;9.230;2022-12-24T05:25:33;11.70;99.90
4509;DHT22;2267;48.816;9.230;2022-12-24T05:28:20;11.60;99.90
4509;DHT22;2267;48.816;9.230;2022-12-24T05:30:47;11.60;99.90
4509;DHT22;2267;48.816;9.230;2022-12-24T05:33:14;11.60;99.90
4509;DHT22;2267;48.816;9.230;2022-12-24T05:35:40;11.60;99.90
4509;DHT22;2267;48.816;9.230;2022-12-24T05:38:07;11.60;99.90
4509;DHT22;2267;48.816;9.230;2022-12-24T05:40:34;11.60;99.90
4509;DHT22;2267;48.816;9.230;2022-12-24T05:43:01;11.60;99.90
4509;DHT22;2267;48.816;9.230;2022-12-24T05:45:27;11.60;99.90
4509;DHT22;2267;48.816;9.230;2022-12-24T05:47:54;11.60;99.90
4509;DHT22;2267;48.816;9.230;2022-12-24T05:50:21;11.60;99.90
4509;DHT22;2267;48.816;9.230;2022-12-24T05:52:47;11.60;99.90
4509;DHT22;2267;48.816;9.230;2022-12-24T05:55:14;11.50;99.90
4509;DHT22;2267;48.816;9.230;2022-12-24T05:57:41;11.50;99.90
4509;DHT22;2267;48.816;9.230;2022-12-24T06:00:08;11.50;99.90
4509;DHT22;2267;48.816;9.230;2022-12-24T06:02:36;11.50;99.90
4509;DHT22;2267;48.816;9.230;2022-12-24T06:05:03;11.50;99.90
4509;DHT22;2267;48.816;9.230;2022-12-24T06:07:30;11.50;99.90
4509;DHT22;2267;48.816;9.230;2022-12-24T06:09:56;11.50;99.90
4509;DHT22;2267;48.816;9.230;2022-12-24T06:12:23;11.50;99.90
4509;DHT22;2267;48.816;9.230;2022-12-24T06:14:50;11.50;99.90
4509;DHT22;2267;48.816;9.230;2022-12-24T06:17:16;11.40;99.90
4509;DHT22;2267;48.816;9.230;2022-12-24T06:19:43;11.50;99.90
4509;DHT22;2267;48.816;9.230;2022-12-24T06:22:10;11.50;99.90
4509;DHT22;2267;48.816;9.230;2022-12-24T06:24:37;11.50;99.90
4509;DHT22;2267;48.816;9.230;2022-12-24T06:27:03;11.50;99.90
4509;DHT22;2267;48.816;9.230;2022-12-24T06:29:30;11.50;99.90
4509;DHT22;2267;48.816;9.230;2022-12-24T06:31:57;11.40;99.90
4509;DHT22;2267;48.816;9.230;2022-12-24T06:34:24;11.50;99.90
4509;DHT22;2267;48.816;9.230;2022-12-24T06:36:50;11.40;99.90
4509;DHT22;2267;48.816;9.230;2022-12-24T06:39:17;11.40;99.90
4509;DHT22;2267;48.816;9.230;2022-12-24T06:41:44;11.50;99.90
4509;DHT22;2267;48.816;9.230;2022-12-24T06:44:11;11.40;99.90
4509;DHT22;2267;48.816;9.230;2022-12-24T06:46:37;11.40;99.90
4509;DHT22;2267;48.816;9.230;2022-12-24T06:49:04;11.40;99.90
4509;DHT22;2267;48.816;9.230;2022-12-24T06:51:31;11.40;99.90
4509;DHT22;2267;48.816;9.230;2022-12-24T06:53:58;11.40;99.90
4509;DHT22;2267;48.816;9.230;2022-12-24T06:56:24;11.40;99.90
4509;DHT22;2267;48.816;9.230;2022-12-24T06:58:51;11.40;99.90
4509;DHT22;2267;48.816;9.230;2022-12-24T07:01:19;11.40;99.90
4509;DHT22;2267;48.816;9.230;2022-12-24T07:03:47;11.40;99.90
4509;DHT22;2267;48.816;9.230;2022-12-24T07:06:25;11.40;99.90
4509;DHT22;2267;48.816;9.230;2022-12-24T07:08:53;11.40;99.90
4509;DHT22;2267;48.816;9.230;2022-12-24T07:11:21;11.40;99.90
4509;DHT22;2267;48.816;9.230;2022-12-24T07:13:48;11.40;99.90
4509;DHT22;2267;48.816;9.230;2022-12-24T07:16:15;11.40;99.90
4509;DHT22;2267;48.816;9.230;2022-12-24T07:18:43;11.40;99.90
4509;DHT22;2267;48.816;9.230;2022-12-24T07:21:10;11.40;99.90
4509;DHT22;2267;48.816;9.230;2022-12-24T07:23:37;11.50;99.90
4509;DHT22;2267;48.816;9.230;2022-12-24T07:26:05;11.50;99.90
4509;DHT22;2267;48.816;9.230;2022-12-24T07:28:32;11.50;99.90
4509;DHT22;2267;48.816;9.230;2022-12-24T07:30:59;11.50;99.90
4509;DHT22;2267;48.816;9.230;2022-12-24T07:33:26;11.50;99.90
4509;DHT22;2267;48.816;9.230;2022-12-24T07:36:01;11.50;99.90
4509;DHT22;2267;48.816;9.230;2022-12-24T07:38:28;11.50;99.90
4509;DHT22;2267;48.816;9.230;2022-12-24T07:40:56;11.50;99.90
4509;DHT22;2267;48.816;9.230;2022-12-24T07:43:24;11.50;99.90
4509;DHT22;2267;48.816;9.230;2022-12-24T07:45:56;11.40;99.90
4509;DHT22;2267;48.816;9.230;2022-12-24T07:48:25;11.40;99.90
4509;DHT22;2267;48.816;9.230;2022-12-24T07:50:52;11.40;99.90
4509;DHT22;2267;48.816;9.230;2022-12-24T07:53:19;11.40;99.90
4509;DHT22;2267;48.816;9.230;2022-12-24T07:55:46;11.40;99.90
4509;DHT22;2267;48.816;9.230;2022-12-24T07:58:13;11.40;99.90
4509;DHT22;2267;48.816;9.230;2022-12-24T08:00:40;11.40;99.90
4509;DHT22;2267;48.816;9.230;2022-12-24T08:03:16;11.40;99.90
4509;DHT22;2267;48.816;9.230;2022-12-24T08:05:44;11.40;99.90
4509;DHT22;2267;48.816;9.230;2022-12-24T08:08:11;11.40;99.90
4509;DHT22;2267;48.816;9.230;2022-12-24T08:10:39;11.40;99.90
4509;DHT22;2267;48.816;9.230;2022-12-24T08:13:06;11.40;99.90
4509;DHT22;2267;48.816;9.230;2022-12-24T08:15:33;11.40;99.90
4509;DHT22;2267;48.816;9.230;2022-12-24T08:18:00;11.40;99.90
4509;DHT22;2267;48.816;9.230;2022-12-24T08:20:27;11.40;99.90
4509;DHT22;2267;48.816;9.230;2022-12-24T08:22:54;11.40;99.90
4509;DHT22;2267;48.816;9.230;2022-12-24T08:25:20;11.40;99.90
4509;DHT22;2267;48.816;9.230;2022-12-24T08:27:47;11.40;99.90
4509;DHT22;2267;48.816;9.230;2022-12-24T08:30:15;11.40;99.90
4509;DHT22;2267;48.816;9.230;2022-12-24T08:32:47;11.40;99.90
4509;DHT22;2267;48.816;9.230;2022-12-24T08:35:13;11.40;99.90
4509;DHT22;2267;48.816;9.230;2022-12-24T08:37:40;11.40;99.90
4509;DHT22;2267;48.816;9.230;2022-12-24T08:40:08;11.40;99.90
4509;DHT22;2267;48.816;9.230;2022-12-24T08:42:35;11.40;99.90
4509;DHT22;2267;48.816;9.230;2022-12-24T08:45:01;11.40;99.90
4509;DHT22;2267;48.816;9.230;2022-12-24T08:47:28;11.50;99.90
4509;DHT22;2267;48.816;9.230;2022-12-24T08:49:55;11.50;99.90
4509;DHT22;2267;48.816;9.230;2022-12-24T08:52:22;11.50;99.90
4509;DHT22;2267;48.816;9.230;2022-12-24T08:54:49;11.50;99.90
4509;DHT22;2267;48.816;9.230;2022-12-24T08:57:15;11.50;99.90
4509;DHT22;2267;48.816;9.230;2022-12-24T08:59:42;11.50;99.90
4509;DHT22;2267;48.816;9.230;2022-12-24T09:02:09;11.50;99.90
4509;DHT22;2267;48.816;9.230;2022-12-24T09:04:39;11.50;99.90
4509;DHT22;2267;48.816;9.230;2022-12-24T09:07:07;11.50;99.90
4509;DHT22;2267;48.816;9.230;2022-12-24T09:09:34;11.50;99.90
4509;DHT22;2267;48.816;9.230;2022-12-24T09:12:04;11.50;99.90
4509;DHT22;2267;48.816;9.230;2022-12-24T09:14:31;11.60;99.90
4509;DHT22;2267;48.816;9.230;2022-12-24T09:16:58;11.60;99.90
4509;DHT22;2267;48.816;9.230;2022-12-24T09:19:26;11.60;99.90
4509;DHT22;2267;48.816;9.230;2022-12-24T09:21:53;11.70;99.90
4509;DHT22;2267;48.816;9.230;2022-12-24T09:24:20;11.70;99.90
4509;DHT22;2267;48.816;9.230;2022-12-24T09:26:48;11.80;99.90
4509;DHT22;2267;48.816;9.230;2022-12-24T09:29:23;11.80;99.90
4509;DHT22;2267;48.816;9.230;2022-12-24T09:31:49;11.90;99.90
4509;DHT22;2267;48.816;9.230;2022-12-24T09:34:16;12.10;99.90
4509;DHT22;2267;48.816;9.230;2022-12-24T09:36:43;12.30;99.90
4509;DHT22;2267;48.816;9.230;2022-12-24T09:39:10;12.50;99.90
4509;DHT22;2267;48.816;9.230;2022-12-24T09:44:42;12.80;99.90
4509;DHT22;2267;48.816;9.230;2022-12-24T09:49:51;13.30;99.90
4509;DHT22;2267;48.816;9.230;2022-12-24T09:52:28;13.40;99.90
4509;DHT22;2267;48.816;9.230;2022-12-24T09:55:05;13.60;99.90
4509;DHT22;2267;48.816;9.230;2022-12-24T09:57:39;13.80;99.90
4509;DHT22;2267;48.816;9.230;2022-12-24T10:00:26;14.10;99.90
4509;DHT22;2267;48.816;9.230;2022-12-24T10:02:53;14.20;99.90
4509;DHT22;2267;48.816;9.230;2022-12-24T10:05:37;14.20;99.90
4509;DHT22;2267;48.816;9.230;2022-12-24T10:11:17;14.70;99.90
4509;DHT22;2267;48.816;9.230;2022-12-24T10:16:25;14.80;99.90
4509;DHT22;2267;48.816;9.230;2022-12-24T10:24:42;15.00;99.90
4509;DHT22;2267;48.816;9.230;2022-12-24T10:27:18;14.90;99.90
4509;DHT22;2267;48.816;9.230;2022-12-24T10:29:50;14.80;99.90
4509;DHT22;2267;48.816;9.230;2022-12-24T10:32:27;14.70;99.90
4509;DHT22;2267;48.816;9.230;2022-12-24T10:37:28;14.30;99.90
4509;DHT22;2267;48.816;9.230;2022-12-24T10:39:57;14.20;99.90
4509;DHT22;2267;48.816;9.230;2022-12-24T10:42:32;14.10;99.90
4509;DHT22;2267;48.816;9.230;2022-12-24T10:45:06;14.00;99.90
4509;DHT22;2267;48.816;9.230;2022-12-24T10:47:36;13.90;99.90
4509;DHT22;2267;48.816;9.230;2022-12-24T10:50:32;13.80;99.90
4509;DHT22;2267;48.816;9.230;2022-12-24T10:53:27;13.80;99.90
4509;DHT22;2267;48.816;9.230;2022-12-24T10:56:06;13.80;99.90
4509;DHT22;2267;48.816;9.230;2022-12-24T10:58:33;13.70;99.90
4509;DHT22;2267;48.816;9.230;2022-12-24T11:01:01;13.70;99.90
4509;DHT22;2267;48.816;9.230;2022-12-24T11:03:35;13.60;99.90
4509;DHT22;2267;48.816;9.230;2022-12-24T11:08:33;13.50;99.90
4509;DHT22;2267;48.816;9.230;2022-12-24T11:11:06;13.50;99.90
4509;DHT22;2267;48.816;9.230;2022-12-24T11:13:42;13.40;99.90
4509;DHT22;2267;48.816;9.230;2022-12-24T11:16:32;13.40;99.90
4509;DHT22;2267;48.816;9.230;2022-12-24T11:19:03;13.30;99.90
4509;DHT22;2267;48.816;9.230;2022-12-24T11:21:34;13.30;99.90
4509;DHT22;2267;48.816;9.230;2022-12-24T11:24:20;13.30;99.90
4509;DHT22;2267;48.816;9.230;2022-12-24T11:26:49;13.20;99.90
4509;DHT22;2267;48.816;9.230;2022-12-24T11:29:20;13.20;99.90
4509;DHT22;2267;48.816;9.230;2022-12-24T11:31:49;13.20;99.90
4509;DHT22;2267;48.816;9.230;2022-12-24T11:34:28;13.10;99.90
4509;DHT22;2267;48.816;9.230;2022-12-24T11:39:47;13.10;99.90
4509;DHT22;2267;48.816;9.230;2022-12-24T11:44:54;13.00;99.90
4509;DHT22;2267;48.816;9.230;2022-12-24T11:47:33;13.00;99.90
4509;DHT22;2267;48.816;9.230;2022-12-24T11:55:45;13.00;99.90
4509;DHT22;2267;48.816;9.230;2022-12-24T12:03:32;13.10;99.90
4509;DHT22;2267;48.816;9.230;2022-12-24T12:06:03;13.10;99.90
4509;DHT22;2267;48.816;9.230;2022-12-24T12:08:37;13.10;99.90
4509;DHT22;2267;48.816;9.230;2022-12-24T12:11:10;13.10;99.90
4509;DHT22;2267;48.816;9.230;2022-12-24T12:13:42;13.10;99.90
4509;DHT22;2267;48.816;9.230;2022-12-24T12:19:03;13.10;99.90
4509;DHT22;2267;48.816;9.230;2022-12-24T12:21:43;13.10;99.90
4509;DHT22;2267;48.816;9.230;2022-12-24T12:24:18;13.10;99.90
4509;DHT22;2267;48.816;9.230;2022-12-24T12:27:00;13.10;99.90
4509;DHT22;2267;48.816;9.230;2022-12-24T12:29:33;13.10;99.90
4509;DHT22;2267;48.816;9.230;2022-12-24T12:32:06;13.10;99.90
4509;DHT22;2267;48.816;9.230;2022-12-24T12:34:43;13.10;99.90
4509;DHT22;2267;48.816;9.230;2022-12-24T12:37:17;13.10;99.90
4509;DHT22;2267;48.816;9.230;2022-12-24T12:39:46;13.10;99.90
4509;DHT22;2267;48.816;9.230;2022-12-24T12:42:34;13.10;99.90
4509;DHT22;2267;48.816;9.230;2022-12-24T12:59:06;13.10;99.90
4509;DHT22;2267;48.816;9.230;2022-12-24T13:08:11;13.10;99.90
4509;DHT22;2267;48.816;9.230;2022-12-24T13:21:24;14.00;99.90
4509;DHT22;2267;48.816;9.230;2022-12-24T13:24:11;14.10;99.90
4509;DHT22;2267;48.816;9.230;2022-12-24T13:26:40;14.40;99.90
4509;DHT22;2267;48.816;9.230;2022-12-24T13:34:53;14.90;99.90
4509;DHT22;2267;48.816;9.230;2022-12-24T13:37:21;15.00;99.90
4509;DHT22;2267;48.816;9.230;2022-12-24T13:40:12;15.00;99.90
4509;DHT22;2267;48.816;9.230;2022-12-24T13:48:00;15.00;99.90
4509;DHT22;2267;48.816;9.230;2022-12-24T13:53:17;14.80;99.90
4509;DHT22;2267;48.816;9.230;2022-12-24T13:55:55;14.70;99.90
4509;DHT22;2267;48.816;9.230;2022-12-24T13:58:23;14.60;99.90
4509;DHT22;2267;48.816;9.230;2022-12-24T14:00:53;14.50;99.90
4509;DHT22;2267;48.816;9.230;2022-12-24T14:03:28;14.40;99.90
4509;DHT22;2267;48.816;9.230;2022-12-24T14:06:01;14.40;99.90
4509;DHT22;2267;48.816;9.230;2022-12-24T14:08:41;14.30;99.90
4509;DHT22;2267;48.816;9.230;2022-12-24T14:16:23;14.10;99.90
4509;DHT22;2267;48.816;9.230;2022-12-24T14:19:00;14.00;99.90
4509;DHT22;2267;48.816;9.230;2022-12-24T14:21:34;13.90;99.90
4509;DHT22;2267;48.816;9.230;2022-12-24T14:24:05;13.90;99.90
4509;DHT22;2267;48.816;9.230;2022-12-24T14:26:46;13.80;99.90
4509;DHT22;2267;48.816;9.230;2022-12-24T14:29:31;13.80;99.90
4509;DHT22;2267;48.816;9.230;2022-12-24T14:32:00;13.80;99.90
4509;DHT22;2267;48.816;9.230;2022-12-24T14:34:30;13.70;99.90
4509;DHT22;2267;48.816;9.230;2022-12-24T14:36:58;13.70;99.90
4509;DHT22;2267;48.816;9.230;2022-12-24T14:39:31;13.60;99.90
4509;DHT22;2267;48.816;9.230;2022-12-24T14:42:24;13.60;99.90
4509;DHT22;2267;48.816;9.230;2022-12-24T14:55:46;13.30;99.90
4509;DHT22;2267;48.816;9.230;2022-12-24T14:58:30;13.30;99.90
4509;DHT22;2267;48.816;9.230;2022-12-24T15:01:00;13.20;99.90
4509;DHT22;2267;48.816;9.230;2022-12-24T15:03:30;13.20;99.90
4509;DHT22;2267;48.816;9.230;2022-12-24T15:06:04;13.20;99.90
4509;DHT22;2267;48.816;9.230;2022-12-24T15:08:48;13.20;99.90
4509;DHT22;2267;48.816;9.230;2022-12-24T15:11:20;13.20;99.90
4509;DHT22;2267;48.816;9.230;2022-12-24T15:13:56;13.10;99.90
4509;DHT22;2267;48.816;9.230;2022-12-24T15:16:30;13.10;99.90
4509;DHT22;2267;48.816;9.230;2022-12-24T15:19:02;13.00;99.90
4509;DHT22;2267;48.816;9.230;2022-12-24T15:21:36;13.00;99.90
4509;DHT22;2267;48.816;9.230;2022-12-24T15:26:52;12.90;99.90
4509;DHT22;2267;48.816;9.230;2022-12-24T15:29:25;12.80;99.90
4509;DHT22;2267;48.816;9.230;2022-12-24T15:31:55;12.80;99.90
4509;DHT22;2267;48.816;9.230;2022-12-24T15:34:35;12.70;99.90
4509;DHT22;2267;48.816;9.230;2022-12-24T15:39:31;12.70;99.90
4509;DHT22;2267;48.816;9.230;2022-12-24T15:41:58;12.70;99.90
4509;DHT22;2267;48.816;9.230;2022-12-24T15:44:54;12.60;99.90
4509;DHT22;2267;48.816;9.230;2022-12-24T15:47:32;12.60;99.90
4509;DHT22;2267;48.816;9.230;2022-12-24T15:50:22;12.60;99.90
4509;DHT22;2267;48.816;9.230;2022-12-24T15:52:50;12.60;99.90
4509;DHT22;2267;48.816;9.230;2022-12-24T15:55:38;12.50;99.90
4509;DHT22;2267;48.816;9.230;2022-12-24T15:58:28;12.50;99.90
4509;DHT22;2267;48.816;9.230;2022-12-24T16:03:36;12.40;99.90
4509;DHT22;2267;48.816;9.230;2022-12-24T16:06:05;12.40;99.90
4509;DHT22;2267;48.816;9.230;2022-12-24T16:08:34;12.40;99.90
4509;DHT22;2267;48.816;9.230;2022-12-24T16:11:06;12.40;99.90
4509;DHT22;2267;48.816;9.230;2022-12-24T16:13:39;12.40;99.90
4509;DHT22;2267;48.816;9.230;2022-12-24T16:16:14;12.30;99.90
4509;DHT22;2267;48.816;9.230;2022-12-24T16:18:50;12.30;99.90
4509;DHT22;2267;48.816;9.230;2022-12-24T16:21:39;12.30;99.90
4509;DHT22;2267;48.816;9.230;2022-12-24T16:24:22;12.30;99.90
4509;DHT22;2267;48.816;9.230;2022-12-24T16:26:50;12.20;99.90
4509;DHT22;2267;48.816;9.230;2022-12-24T16:29:17;12.20;99.90
4509;DHT22;2267;48.816;9.230;2022-12-24T16:31:56;12.20;99.90
4509;DHT22;2267;48.816;9.230;2022-12-24T16:34:26;12.20;99.90
4509;DHT22;2267;48.816;9.230;2022-12-24T16:36:53;12.20;99.90
4509;DHT22;2267;48.816;9.230;2022-12-24T16:39:29;12.10;99.90
4509;DHT22;2267;48.816;9.230;2022-12-24T16:41:58;12.10;99.90
4509;DHT22;2267;48.816;9.230;2022-12-24T16:45:04;12.10;99.90
4509;DHT22;2267;48.816;9.230;2022-12-24T16:47:33;12.10;99.90
4509;DHT22;2267;48.816;9.230;2022-12-24T16:50:14;12.10;99.90
4509;DHT22;2267;48.816;9.230;2022-12-24T16:52:41;12.10;99.90
4509;DHT22;2267;48.816;9.230;2022-12-24T16:55:11;12.10;99.90
4509;DHT22;2267;48.816;9.230;2022-12-24T16:57:39;12.10;99.90
4509;DHT22;2267;48.816;9.230;2022-12-24T17:00:10;12.10;99.90
4509;DHT22;2267;48.816;9.230;2022-12-24T17:02:39;12.00;99.90
4509;DHT22;2267;48.816;9.230;2022-12-24T17:05:06;12.00;99.90
4509;DHT22;2267;48.816;9.230;2022-12-24T17:07:33;12.00;99.90
4509;DHT22;2267;48.816;9.230;2022-12-24T17:10:10;12.00;99.90
4509;DHT22;2267;48.816;9.230;2022-12-24T17:12:37;12.00;99.90
4509;DHT22;2267;48.816;9.230;2022-12-24T17:15:04;12.00;99.90
4509;DHT22;2267;48.816;9.230;2022-12-24T17:17:31;12.00;99.90
4509;DHT22;2267;48.816;9.230;2022-12-24T17:19:58;12.00;99.90
4509;DHT22;2267;48.816;9.230;2022-12-24T17:22:25;12.00;99.90
4509;DHT22;2267;48.816;9.230;2022-12-24T17:24:54;12.00;99.90
4509;DHT22;2267;48.816;9.230;2022-12-24T17:27:21;12.00;99.90
4509;DHT22;2267;48.816;9.230;2022-12-24T17:29:49;12.00;99.90
4509;DHT22;2267;48.816;9.230;2022-12-24T17:32:16;12.00;99.90
4509;DHT22;2267;48.816;9.230;2022-12-24T17:34:42;12.00;99.90
4509;DHT22;2267;48.816;9.230;2022-12-24T17:37:09;11.90;99.90
4509;DHT22;2267;48.816;9.230;2022-12-24T17:39:36;11.90;99.90
4509;DHT22;2267;48.816;9.230;2022-12-24T17:42:03;11.90;99.90
4509;DHT22;2267;48.816;9.230;2022-12-24T17:44:30;11.90;99.90
4509;DHT22;2267;48.816;9.230;2022-12-24T17:46:56;11.90;99.90
4509;DHT22;2267;48.816;9.230;2022-12-24T17:49:23;11.90;99.90
4509;DHT22;2267;48.816;9.230;2022-12-24T17:51:50;11.90;99.90
4509;DHT22;2267;48.816;9.230;2022-12-24T17:54:17;11.90;99.90
4509;DHT22;2267;48.816;9.230;2022-12-24T17:56:44;11.90;99.90
4509;DHT22;2267;48.816;9.230;2022-12-24T17:59:10;11.90;99.90
4509;DHT22;2267;48.816;9.230;2022-12-24T18:01:37;11.90;99.90
4509;DHT22;2267;48.816;9.230;2022-12-24T18:04:04;11.90;99.90
4509;DHT22;2267;48.816;9.230;2022-12-24T18:06:31;11.90;99.90
4509;DHT22;2267;48.816;9.230;2022-12-24T18:08:58;11.90;99.90
4509;DHT22;2267;48.816;9.230;2022-12-24T18:11:28;11.90;99.90
4509;DHT22;2267;48.816;9.230;2022-12-24T18:13:56;11.90;99.90
4509;DHT22;2267;48.816;9.230;2022-12-24T18:16:30;11.90;99.90
4509;DHT22;2267;48.816;9.230;2022-12-24T18:18:58;11.90;99.90
4509;DHT22;2267;48.816;9.230;2022-12-24T18:21:27;11.80;99.90
4509;DHT22;2267;48.816;9.230;2022-12-24T18:23:54;11.80;99.90
4509;DHT22;2267;48.816;9.230;2022-12-24T18:26:24;11.80;99.90
4509;DHT22;2267;48.816;9.230;2022-12-24T18:28:53;11.80;99.90
4509;DHT22;2267;48.816;9.230;2022-12-24T18:31:21;11.80;99.90
4509;DHT22;2267;48.816;9.230;2022-12-24T18:33:49;11.80;99.90
4509;DHT22;2267;48.816;9.230;2022-12-24T18:36:17;11.80;99.90